Estació municipal de Cànoves i Samalús (Vallès Oriental, P.N.del Montseny)

Consulta les dades en temps real de l'estació municipal de Cànoves i Samalús





Hora UTC 09:25
Temperatura 15.2 ºC
Humitat 83.3 %
Pressió 1010.9 hPa
Pluja 0.2 mm
Velocitat vent 2.5 km/h
Direcció vent NW
Radiació solar 156.3 W/m²

Webcam

Dades diàries 2026-05-05



Hora UTC (hivern +1h; estiu +2h)
Temperatura (ºC) Humitat (%) Pressió (hPa) Velocitat vent (km/h) Precipitació (mm) Radiació solar (W/m²)
Hora UTC Aire Humitat Pressió Vel. Dir. Vel. Max Dir. Intent. màx 5 min. Rad. Sol.
00:05 10.0 96.0 1010.5 1.9 WNW 1.9 NW 0.0 0.1
00:10 10.0 96.0 1010.5 1.1 NNW 2.8 NW 0.0 0.1
00:15 10.0 96.1 1010.5 1.4 NNW 4.2 NNW 0.0 0.1
00:20 9.8 96.0 1010.5 0.7 NW 3.2 NW 0.0 0.1
00:25 9.7 95.9 1010.5 1.4 S 4.2 SSE 0.0 0.1
00:30 9.5 95.8 1010.5 1.6 S 3.9 S 0.0 0.1
00:35 9.5 96.2 1010.6 0.6 NNW 2.8 NW 0.0 0.1
00:40 9.5 96.2 1010.6 2.1 NW 4.6 WNW 0.0 0.1
00:45 9.6 96.6 1010.6 1.2 WNW 3.9 WNW 0.0 0.1
00:50 9.7 96.7 1010.6 3.2 NNW 5.6 N 0.0 0.1
00:55 9.8 96.7 1010.5 5.4 NW 8.5 NNW 0.0 0.1
01:00 9.9 96.8 1010.6 3.8 NW 6.4 WSW 0.0 0.1
01:05 9.9 96.8 1010.6 4.2 NNW 7.8 N 0.0 0.1
01:10 9.8 96.4 1010.5 3.6 NNW 8.5 NNW 0.0 0.1
01:15 9.6 96.3 1010.4 2.2 NW 3.5 WNW 0.0 0.1
01:20 9.5 96.5 1010.4 2.7 NNW 4.6 N 0.0 0.1
01:25 9.4 96.5 1010.4 2.4 NW 4.2 NW 0.0 0.1
01:30 9.5 96.9 1010.4 2.3 NNW 4.2 NW 0.0 0.1
01:35 9.5 96.9 1010.3 2.8 NW 6.0 N 0.1 0.1
01:40 9.6 97.0 1010.4 4.8 NW 7.1 NNW 0.0 0.1
01:45 9.5 96.9 1010.4 2.4 NW 6.7 WNW 0.0 0.1
01:50 9.5 96.9 1010.3 2.0 NW 4.2 NNW 0.0 0.1
01:55 9.4 96.9 1010.4 2.2 N 4.6 N 0.0 0.1
02:00 9.1 96.5 1010.3 0.0 W 1.4 W 0.0 0.1
02:05 9.1 97.1 1010.3 3.1 NNW 6.0 NNW 0.0 0.1
02:10 9.3 97.2 1010.4 2.7 NNW 5.3 NNW 0.0 0.1
02:15 9.2 96.8 1010.4 2.3 NNW 4.2 N 0.0 0.1
02:20 9.1 96.9 1010.4 0.6 NNW 2.5 NNW 0.0 0.1
02:25 9.0 97.0 1010.4 1.9 NNW 3.9 N 0.0 0.1
02:30 8.9 97.1 1010.4 3.7 NW 6.4 NNW 0.0 0.1
02:35 9.1 97.4 1010.4 2.0 NNW 5.3 NNW 0.0 0.1
02:40 8.9 96.9 1010.4 0.9 N 4.2 NNW 0.0 0.1
02:45 8.7 96.8 1010.5 3.8 NNW 5.6 NNW 0.0 0.1
02:50 8.7 97.2 1010.4 0.6 NW 2.8 NW 0.0 0.1
02:55 8.7 97.3 1010.5 1.7 N 4.2 N 0.0 0.1
03:00 8.6 97.2 1010.5 1.1 NNW 3.2 NNW 0.0 0.1
03:05 8.3 96.9 1010.5 0.4 WNW 3.2 WNW 0.0 0.1
03:10 8.6 97.7 1010.6 4.4 NNW 6.4 NNW 0.0 0.1
03:15 8.8 97.6 1010.5 3.8 NNW 6.4 NNW 0.0 0.1
03:20 8.6 97.3 1010.5 3.2 NNW 4.6 NNW 0.0 0.1
03:25 8.7 97.6 1010.5 5.6 NNW 7.8 NNW 0.0 0.1
03:30 8.8 97.6 1010.5 4.5 N 8.5 N 0.0 0.1
03:35 8.8 97.6 1010.4 4.7 NNW 6.7 NNW 0.0 0.1
03:40 8.8 97.6 1010.4 6.3 NNW 7.8 NNW 0.0 0.1
03:45 8.8 97.6 1010.4 4.4 NNW 6.0 NNW 0.0 0.1
03:50 8.7 97.4 1010.3 1.7 NNW 4.6 NNW 0.0 0.1
03:55 8.6 97.5 1010.4 3.5 NNW 4.6 NNW 0.0 0.1
04:00 8.5 97.3 1010.5 3.4 NNW 4.2 NNW 0.0 0.1
04:05 8.4 97.4 1010.4 3.2 N 4.6 N 0.0 0.1
04:10 8.3 97.5 1010.4 4.3 NNW 7.1 NNW 0.0 0.1
04:15 8.3 97.5 1010.5 2.5 NNW 4.9 NNW 0.0 0.1
04:20 8.2 97.7 1010.5 4.1 NNW 5.3 NW 0.0 0.2
04:25 8.4 97.9 1010.5 4.2 NNW 5.6 NNW 0.0 0.6
04:30 8.3 97.7 1010.5 3.1 NNW 6.4 NNW 0.0 1.4
04:35 8.3 97.9 1010.5 3.8 NNW 5.3 NNW 0.0 2.6
04:40 8.4 98.0 1010.5 4.5 NNW 6.7 NNW 0.0 4.3
04:45 8.5 98.1 1010.5 3.4 NNW 4.6 NNW 0.0 6.3
04:50 8.4 97.8 1010.4 4.0 NNW 6.4 NNW 0.0 8.4
04:55 8.5 98.2 1010.4 4.0 NNW 5.6 NNW 0.0 10.6
05:00 8.6 98.2 1010.4 3.4 NNW 4.9 N 0.0 13.0
05:05 8.8 98.3 1010.5 3.8 N 7.1 N 0.0 15.2
05:10 8.9 98.3 1010.5 5.6 N 8.5 NW 0.0 17.7
05:15 9.1 98.3 1010.5 5.9 N 8.8 N 0.1 22.1
05:20 9.2 98.3 1010.5 5.6 N 9.5 NNW 0.0 22.8
05:25 9.3 98.1 1010.5 5.6 N 9.2 NNW 0.0 50.3
05:30 9.4 98.2 1010.5 4.8 N 7.1 NNW 0.0 102.4
05:35 9.6 98.4 1010.4 4.7 N 8.1 NNE 0.0 115.3
05:40 9.9 98.3 1010.5 4.2 N 7.1 N 0.0 128.9
05:45 10.0 98.2 1010.4 3.5 N 8.5 NW 0.0 141.1
05:50 10.2 97.9 1010.4 3.7 N 7.1 NNE 0.0 154.7
05:55 10.2 97.5 1010.5 2.7 N 5.3 NNE 0.0 168.9
06:00 10.3 97.3 1010.5 1.2 NNW 3.2 N 0.0 183.8
06:05 10.7 97.8 1010.6 2.8 N 4.6 N 0.0 197.7
06:10 11.1 97.7 1010.6 1.0 ENE 3.2 N 0.0 212.5
06:15 11.4 97.6 1010.6 1.1 NNE 2.8 N 0.0 227.7
06:20 11.6 97.3 1010.6 1.0 NNE 2.8 NNE 0.0 243.1
06:25 11.9 97.2 1010.7 2.3 N 4.2 NNE 0.0 258.8
06:30 12.2 96.9 1010.6 1.1 N 3.9 N 0.0 274.3
06:35 12.4 96.4 1010.6 1.8 N 4.2 NNW 0.0 262.1
06:40 12.6 96.0 1010.6 0.8 NNW 3.9 NNW 0.0 54.1
06:45 12.8 95.0 1010.6 1.0 N 3.5 NNW 0.0 55.2
06:50 13.2 94.3 1010.5 0.3 ESE 3.2 ESE 0.0 238.3
06:55 13.5 93.1 1010.5 1.5 E 3.2 SE 0.0 351.9
07:00 13.8 92.4 1010.5 1.3 ESE 3.2 SE 0.0 371.0
07:05 13.8 91.5 1010.5 4.9 SE 8.8 SE 0.0 399.2
07:10 14.0 91.4 1010.5 6.2 ESE 10.9 ESE 0.0 446.6
07:15 14.2 91.1 1010.6 7.4 SE 12.4 SE 0.0 312.7
07:20 13.9 90.3 1010.6 6.8 ESE 14.5 SE 0.0 351.7
07:25 14.1 91.0 1010.7 5.1 ESE 9.5 ESE 0.0 453.6
07:30 14.3 90.5 1010.7 4.9 ESE 13.1 E 0.0 474.4
07:35 14.1 88.7 1010.8 7.1 ESE 13.1 E 0.0 472.6
07:40 14.3 88.9 1010.9 3.9 SE 8.8 ESE 0.0 483.4
07:45 14.6 88.0 1010.9 4.0 ENE 8.1 NE 0.0 497.4
07:50 14.9 86.9 1010.8 2.6 E 7.8 ESE 0.0 511.3
07:55 15.2 85.0 1010.7 4.7 ENE 8.8 E 0.0 525.3
08:00 15.5 83.5 1010.7 5.4 ENE 9.5 NE 0.0 539.8
08:05 15.8 82.4 1010.6 5.3 ESE 9.5 E 0.0 553.5
08:10 16.1 81.3 1010.5 5.5 E 11.3 ENE 0.0 568.1
08:15 16.4 80.2 1010.5 5.0 E 13.8 E 0.0 580.9
08:20 16.5 77.1 1010.4 6.8 E 14.8 E 0.0 595.3
08:25 16.5 77.2 1010.4 7.2 ENE 14.1 ENE 0.0 613.7
08:30 16.8 78.7 1010.3 5.0 E 13.8 E 0.0 647.0
08:35 17.3 77.2 1010.4 7.0 E 16.9 E 0.0 723.2
08:40 17.1 75.0 1010.4 6.5 ENE 12.4 ENE 0.0 565.4
08:45 16.8 75.3 1010.4 6.4 E 11.6 E 0.0 190.6
08:50 16.4 76.5 1010.5 5.0 ESE 11.3 SE 0.0 135.2
08:55 16.1 78.4 1010.6 7.0 SE 12.0 ESE 0.0 98.7
09:00 15.8 79.1 1010.8 4.6 SSE 6.7 S 0.0 94.1
09:05 15.7 79.9 1011.0 5.0 SSE 8.1 SSE 0.0 89.4
09:10 15.6 80.7 1011.2 5.4 SSE 8.8 S 0.0 85.0
09:15 15.5 81.8 1011.3 5.5 SSE 9.5 S 0.0 81.6
09:20 15.3 82.5 1011.3 3.0 S 7.1 SSE 0.0 84.1
09:25 15.2 83.3 1010.9 2.5 NW 5.6 NNW 0.0 156.3
Màxima 17.3 98.4 1011.3 7.4 SE 16.9 E 0.1 723.2
Mínima 8.2 75.0 1010.3
Total 0.2